createdAt,value
2019-02-14T00:01:48.747Z,96816.09
2019-02-14T00:04:56.033Z,96813.42
2019-02-14T00:08:03.807Z,96813.73
2019-02-14T00:11:11.253Z,96804.02
2019-02-14T00:14:18.428Z,96806.00
2019-02-14T00:17:26.125Z,96809.97
2019-02-14T00:20:33.289Z,96814.30
2019-02-14T00:23:41.410Z,96802.79
2019-02-14T00:26:48.577Z,96795.80
2019-02-14T00:29:55.748Z,96802.36
2019-02-14T00:33:02.932Z,96806.42
2019-02-14T00:36:10.185Z,96803.47
2019-02-14T00:39:17.367Z,96801.80
2019-02-14T00:42:24.569Z,96808.29
2019-02-14T00:45:31.765Z,96816.20
2019-02-14T00:48:39.361Z,96813.81
2019-02-14T00:51:46.613Z,96807.73
2019-02-14T00:54:53.780Z,96807.46
2019-02-14T00:58:01.163Z,96804.20
2019-02-14T01:01:08.846Z,96797.65
2019-02-14T01:04:16.020Z,96795.28
2019-02-14T01:07:23.186Z,96798.58
2019-02-14T01:10:30.449Z,96793.31
2019-02-14T01:13:38.099Z,96783.93
2019-02-14T01:16:45.276Z,96784.61
2019-02-14T01:19:52.441Z,96786.01
2019-02-14T01:22:59.606Z,96791.82
2019-02-14T01:26:06.873Z,96787.30
2019-02-14T01:29:14.152Z,96789.98
2019-02-14T01:32:21.850Z,96780.38
2019-02-14T01:35:29.119Z,96778.95
2019-02-14T01:38:36.303Z,96780.74
2019-02-14T01:41:43.615Z,96787.96
2019-02-14T01:44:50.989Z,96790.14
2019-02-14T01:47:58.251Z,96785.63
2019-02-14T01:51:05.805Z,96783.03
2019-02-14T01:54:13.197Z,96783.45
2019-02-14T02:00:29.691Z,96777.40
2019-02-14T02:03:37.183Z,96781.16
2019-02-14T02:06:44.450Z,96772.16
2019-02-14T02:09:51.723Z,96773.05
2019-02-14T02:12:59.250Z,96767.22
2019-02-14T02:16:06.448Z,96756.03
2019-02-14T02:19:14.349Z,96743.86
2019-02-14T02:22:22.007Z,96746.35
2019-02-14T02:25:29.790Z,96745.98
2019-02-14T02:28:36.922Z,96752.78
2019-02-14T02:31:44.635Z,96749.86
2019-02-14T02:34:51.920Z,96748.47
2019-02-14T02:37:59.431Z,96753.87
2019-02-14T02:41:08.520Z,96751.68
2019-02-14T02:44:15.903Z,96758.17
2019-02-14T02:47:23.481Z,96748.88
2019-02-14T02:50:31.018Z,96744.85
2019-02-14T02:53:38.389Z,96744.48
2019-02-14T02:56:45.885Z,96751.17
2019-02-14T02:59:54.009Z,96740.41
2019-02-14T03:03:01.466Z,96745.30
2019-02-14T03:06:10.901Z,96749.31
2019-02-14T03:09:18.124Z,96757.61
2019-02-14T03:12:25.500Z,96760.71
2019-02-14T03:15:32.673Z,96768.92
2019-02-14T03:18:40.274Z,96773.89
2019-02-14T03:21:47.671Z,96774.70
2019-02-14T03:24:54.952Z,96780.70
2019-02-14T03:28:02.246Z,96781.30
2019-02-14T03:31:09.429Z,96784.84
2019-02-14T03:34:17.513Z,96788.80
2019-02-14T03:37:24.942Z,96796.58
2019-02-14T03:40:32.125Z,96793.03
2019-02-14T03:43:39.313Z,96791.72
2019-02-14T03:46:46.836Z,96799.92
2019-02-14T03:49:54.122Z,96795.64
2019-02-14T03:53:01.584Z,96799.36
2019-02-14T03:56:08.891Z,96798.81
2019-02-14T03:59:16.185Z,96798.13
2019-02-14T04:02:23.766Z,96802.02
2019-02-14T04:05:31.042Z,96797.55
2019-02-14T04:08:38.436Z,96799.93
2019-02-14T04:11:46.058Z,96787.20
2019-02-14T04:14:53.288Z,96786.92
2019-02-14T04:18:00.835Z,96791.55
2019-02-14T04:21:08.116Z,96791.25
2019-02-14T04:24:15.461Z,96786.36
2019-02-14T04:27:23.274Z,96793.12
2019-02-14T04:30:30.547Z,96795.41
2019-02-14T04:33:37.711Z,96795.27
2019-02-14T04:36:45.116Z,96798.56
2019-02-14T04:39:52.590Z,96786.22
2019-02-14T04:42:59.763Z,96776.80
2019-02-14T04:46:07.447Z,96783.11
2019-02-14T04:49:14.865Z,96793.75
2019-02-14T04:52:22.065Z,96793.80
2019-02-14T04:55:29.555Z,96790.48
2019-02-14T04:58:36.951Z,96789.50
2019-02-14T05:01:44.423Z,96796.30
2019-02-14T05:04:51.597Z,96806.39
2019-02-14T05:07:58.811Z,96803.02
2019-02-14T05:11:06.087Z,96802.72
2019-02-14T05:14:13.369Z,96799.81
2019-02-14T05:17:20.872Z,96802.02
2019-02-14T05:20:29.031Z,96805.42
2019-02-14T05:23:36.767Z,96794.91
2019-02-14T05:26:44.636Z,96799.61
2019-02-14T05:29:52.334Z,96812.53
2019-02-14T05:33:00.241Z,96806.32
2019-02-14T05:36:08.362Z,96810.80
2019-02-14T05:39:16.663Z,96822.53
2019-02-14T05:42:25.163Z,96828.52
2019-02-14T05:45:32.775Z,96823.33
2019-02-14T05:48:39.947Z,96823.32
2019-02-14T05:51:47.557Z,96827.11
2019-02-14T05:54:55.361Z,96825.98
2019-02-14T05:58:03.166Z,96826.11
2019-02-14T06:01:12.767Z,96830.34
2019-02-14T06:04:20.404Z,96827.03
2019-02-14T06:07:27.683Z,96829.52
2019-02-14T06:10:35.315Z,96829.22
2019-02-14T06:13:42.492Z,96833.73
2019-02-14T06:16:49.777Z,96826.02
2019-02-14T06:19:57.325Z,96832.11
2019-02-14T06:23:06.073Z,96821.31
2019-02-14T06:26:13.341Z,96823.53
2019-02-14T06:29:21.195Z,96818.62
2019-02-14T06:32:28.840Z,96820.20
2019-02-14T06:35:36.491Z,96826.09
2019-02-14T06:38:43.670Z,96840.31
2019-02-14T06:41:51.099Z,96843.72
2019-02-14T06:44:58.792Z,96846.83
2019-02-14T06:48:06.371Z,96854.92
2019-02-14T06:51:13.972Z,96850.06
2019-02-14T06:54:21.132Z,96852.38
2019-02-14T06:57:28.304Z,96858.20
2019-02-14T07:00:35.583Z,96862.25
2019-02-14T07:03:43.099Z,96872.45
2019-02-14T07:06:50.264Z,96863.58
2019-02-14T07:09:57.843Z,96865.94
2019-02-14T07:13:05.783Z,96863.53
2019-02-14T07:16:13.841Z,96862.56
2019-02-14T07:19:21.260Z,96864.56
2019-02-14T07:22:28.519Z,96869.73
2019-02-14T07:25:35.967Z,96873.49
2019-02-14T07:28:43.141Z,96881.14
2019-02-14T07:31:50.587Z,96893.72
2019-02-14T07:34:58.102Z,96897.06
2019-02-14T07:38:05.799Z,96896.64
2019-02-14T07:41:12.998Z,96894.34
2019-02-14T07:44:20.863Z,96896.23
2019-02-14T07:47:28.502Z,96898.84
2019-02-14T07:50:35.717Z,96901.27
2019-02-14T07:53:42.884Z,96897.15
2019-02-14T07:56:50.377Z,96886.89
2019-02-14T08:03:08.315Z,96885.30
2019-02-14T08:06:16.154Z,96883.66
2019-02-14T08:09:23.628Z,96897.54
2019-02-14T08:12:31.174Z,96891.48
2019-02-14T08:15:38.739Z,96892.72
2019-02-14T08:18:45.922Z,96887.22
2019-02-14T08:21:54.761Z,96888.12
2019-02-14T08:25:02.368Z,96886.45
2019-02-14T08:28:09.646Z,96877.66
2019-02-14T08:31:17.295Z,96893.55
2019-02-14T08:34:24.809Z,96896.58
2019-02-14T08:37:31.960Z,96898.98
2019-02-14T08:40:39.541Z,96896.91
2019-02-14T08:43:46.852Z,96893.25
2019-02-14T08:46:54.162Z,96897.08
2019-02-14T08:50:01.824Z,96892.34
2019-02-14T08:53:09.225Z,96892.75
2019-02-14T08:56:16.724Z,96888.16
2019-02-14T08:59:24.274Z,96888.67
2019-02-14T09:02:31.939Z,96891.45
2019-02-14T09:05:39.914Z,96884.88
2019-02-14T09:08:47.129Z,96889.14
2019-02-14T09:11:54.313Z,96885.59
2019-02-14T09:15:02.548Z,96886.10
2019-02-14T09:18:10.027Z,96890.27
2019-02-14T09:21:17.638Z,96897.50
2019-02-14T09:24:25.044Z,96903.31
2019-02-14T09:27:32.492Z,96902.36
2019-02-14T09:30:40.087Z,96891.42
2019-02-14T09:33:47.261Z,96892.98
2019-02-14T09:36:54.874Z,96896.41
2019-02-14T09:40:02.676Z,96901.05
2019-02-14T09:43:10.114Z,96895.67
2019-02-14T09:46:17.707Z,96886.66
2019-02-14T09:49:25.398Z,96882.53
2019-02-14T09:52:32.989Z,96888.03
2019-02-14T09:55:40.572Z,96898.11
2019-02-14T09:58:47.747Z,96896.10
2019-02-14T10:01:55.039Z,96894.17
2019-02-14T10:05:02.767Z,96886.55
2019-02-14T10:08:12.768Z,96891.37
2019-02-14T10:11:19.737Z,96887.47
2019-02-14T10:14:26.899Z,96896.12
2019-02-14T10:17:34.271Z,96890.80
2019-02-14T10:20:41.449Z,96892.20
2019-02-14T10:23:49.183Z,96897.20
2019-02-14T10:26:56.804Z,96891.37
2019-02-14T10:30:08.242Z,96891.37
2019-02-14T10:33:15.612Z,96884.62
2019-02-14T10:36:23.343Z,96876.85
2019-02-14T10:39:30.730Z,96869.77
2019-02-14T10:42:38.224Z,96871.87
2019-02-14T10:45:45.500Z,96860.56
2019-02-14T10:48:52.923Z,96864.04
2019-02-14T10:52:00.405Z,96857.53
2019-02-14T10:55:09.140Z,96846.97
2019-02-14T10:58:16.828Z,96835.87
2019-02-14T11:01:24.123Z,96827.20
2019-02-14T11:04:31.623Z,96830.75
2019-02-14T11:07:38.898Z,96826.29
2019-02-14T11:10:46.516Z,96831.24
2019-02-14T11:13:53.798Z,96831.41
2019-02-14T11:17:01.118Z,96832.32
2019-02-14T11:20:10.849Z,96828.27
2019-02-14T11:23:18.236Z,96826.14
2019-02-14T11:26:27.640Z,96826.03
2019-02-14T11:29:35.146Z,96823.59
2019-02-14T11:32:43.206Z,96824.14
2019-02-14T11:35:50.692Z,96815.42
2019-02-14T11:38:57.961Z,96806.72
2019-02-14T11:42:05.234Z,96803.02
2019-02-14T11:45:15.002Z,96799.05
2019-02-14T11:48:22.490Z,96801.96
2019-02-14T11:51:29.781Z,96801.42
2019-02-14T11:54:37.603Z,96796.95
2019-02-14T11:57:45.119Z,96794.55
2019-02-14T12:00:52.518Z,96784.75
2019-02-14T12:03:59.693Z,96791.34
2019-02-14T12:07:07.082Z,96793.70
2019-02-14T12:10:14.588Z,96788.88
2019-02-14T12:13:21.759Z,96785.37
2019-02-14T12:16:29.138Z,96781.66
2019-02-14T12:19:37.316Z,96778.52
2019-02-14T12:22:47.088Z,96778.52
2019-02-14T12:25:54.399Z,96781.96
2019-02-14T12:29:01.613Z,96787.23
2019-02-14T12:32:08.896Z,96784.73
2019-02-14T12:35:16.902Z,96783.08
2019-02-14T12:38:24.072Z,96797.11
2019-02-14T12:41:31.240Z,96786.37
2019-02-14T12:44:38.527Z,96784.81
2019-02-14T12:47:45.867Z,96777.19
2019-02-14T12:50:53.037Z,96771.80
2019-02-14T12:54:00.247Z,96764.83
2019-02-14T12:57:07.421Z,96762.75
2019-02-14T13:00:17.641Z,96763.24
2019-02-14T13:03:25.026Z,96759.38
2019-02-14T13:06:32.588Z,96751.27
2019-02-14T13:09:40.482Z,96744.13
2019-02-14T13:12:47.878Z,96742.23
2019-02-14T13:15:55.374Z,96742.50
2019-02-14T13:19:02.970Z,96740.83
2019-02-14T13:22:11.212Z,96733.82
2019-02-14T13:25:18.957Z,96734.00
2019-02-14T13:28:26.580Z,96730.90
2019-02-14T13:31:34.073Z,96729.00
2019-02-14T13:34:41.245Z,96735.78
2019-02-14T13:37:48.630Z,96730.70
2019-02-14T13:40:56.225Z,96723.44
2019-02-14T13:44:06.112Z,96727.46
2019-02-14T13:47:18.257Z,96727.69
2019-02-14T13:50:27.280Z,96723.63
2019-02-14T13:53:35.639Z,96713.75
2019-02-14T13:56:43.695Z,96706.05
2019-02-14T13:59:50.983Z,96716.72
2019-02-14T14:02:58.548Z,96717.00
2019-02-14T14:06:06.961Z,96707.66
2019-02-14T14:09:14.384Z,96712.41
2019-02-14T14:12:22.830Z,96716.13
2019-02-14T14:15:31.211Z,96713.28
2019-02-14T14:18:38.888Z,96715.41
2019-02-14T14:21:47.560Z,96714.16
2019-02-14T14:24:55.106Z,96723.47
2019-02-14T14:28:02.955Z,96723.28
2019-02-14T14:31:10.124Z,96727.20
2019-02-14T14:34:18.748Z,96725.45
2019-02-14T14:37:26.204Z,96736.11
2019-02-14T14:40:34.847Z,96743.00
2019-02-14T14:43:53.005Z,96744.91
2019-02-14T14:47:15.147Z,96738.41
2019-02-14T14:50:22.739Z,96730.20
2019-02-14T14:53:30.121Z,96725.17
2019-02-14T14:56:37.319Z,96728.57
2019-02-14T14:59:44.808Z,96724.59
2019-02-14T15:02:52.331Z,96721.01
2019-02-14T15:05:59.839Z,96722.94
2019-02-14T15:09:07.110Z,96713.67
2019-02-14T15:12:14.297Z,96708.90
2019-02-14T15:15:21.482Z,96701.19
2019-02-14T15:18:29.223Z,96704.33
2019-02-14T15:21:36.488Z,96713.11
2019-02-14T15:24:44.250Z,96715.36
2019-02-14T15:27:51.484Z,96711.44
2019-02-14T15:30:59.141Z,96709.07
2019-02-14T15:34:06.748Z,96714.97
2019-02-14T15:37:15.456Z,96711.25
2019-02-14T15:40:23.369Z,96692.98
2019-02-14T15:43:31.328Z,96684.52
2019-02-14T15:46:38.779Z,96684.75
2019-02-14T15:49:46.852Z,96696.18
2019-02-14T15:52:57.022Z,96704.66
2019-02-14T15:56:05.457Z,96703.36
2019-02-14T15:59:14.189Z,96722.91
2019-02-14T16:02:21.501Z,96726.34
2019-02-14T16:05:28.783Z,96722.89
2019-02-14T16:08:36.269Z,96723.41
2019-02-14T16:11:43.880Z,96724.22
2019-02-14T16:14:51.364Z,96718.13
2019-02-14T16:17:59.541Z,96722.09
2019-02-14T16:21:08.017Z,96713.55
2019-02-14T16:24:16.822Z,96720.82
2019-02-14T16:27:25.155Z,96722.84
2019-02-14T16:30:35.188Z,96727.50
2019-02-14T16:33:43.153Z,96724.88
2019-02-14T16:36:51.377Z,96727.98
2019-02-14T16:39:58.924Z,96728.84
2019-02-14T16:43:06.424Z,96730.13
2019-02-14T16:46:13.836Z,96731.17
2019-02-14T16:49:21.567Z,96735.00
2019-02-14T16:52:29.013Z,96725.89
2019-02-14T16:55:37.415Z,96724.14
2019-02-14T16:58:44.713Z,96726.33
2019-02-14T17:01:51.980Z,96729.38
2019-02-14T17:04:59.398Z,96731.92
2019-02-14T17:08:07.126Z,96729.84
2019-02-14T17:11:14.562Z,96728.05
2019-02-14T17:14:22.028Z,96734.99
2019-02-14T17:17:29.590Z,96742.02
2019-02-14T17:20:37.539Z,96741.43
2019-02-14T17:23:45.638Z,96746.64
2019-02-14T17:26:53.462Z,96749.41
2019-02-14T17:30:02.258Z,96755.09
2019-02-14T17:33:10.628Z,96757.73
2019-02-14T17:36:17.978Z,96759.53
2019-02-14T17:39:25.523Z,96756.91
2019-02-14T17:42:33.327Z,96760.82
2019-02-14T17:45:40.762Z,96763.39
2019-02-14T17:48:48.424Z,96762.92
2019-02-14T17:51:56.339Z,96763.77
2019-02-14T17:55:04.374Z,96769.22
2019-02-14T17:58:12.867Z,96770.16
2019-02-14T18:01:21.808Z,96784.51
2019-02-14T18:04:30.121Z,96788.16
2019-02-14T18:07:38.235Z,96785.37
2019-02-14T18:10:54.555Z,96786.49
2019-02-14T18:13:56.201Z,96782.25
2019-02-14T18:17:03.694Z,96784.84
2019-02-14T18:20:11.607Z,96784.92
2019-02-14T18:23:19.210Z,96780.23
2019-02-14T18:26:26.803Z,96771.80
2019-02-14T18:29:34.991Z,96768.84
2019-02-14T18:32:42.630Z,96771.16
2019-02-14T18:35:50.515Z,96765.05
2019-02-14T18:38:58.257Z,96767.70
2019-02-14T18:42:06.793Z,96759.36
2019-02-14T18:45:14.247Z,96758.85
2019-02-14T18:48:21.959Z,96747.65
2019-02-14T18:51:29.664Z,96745.06
2019-02-14T18:54:37.881Z,96732.67
2019-02-14T18:57:45.700Z,96734.30
2019-02-14T19:00:53.273Z,96731.84
2019-02-14T19:04:00.831Z,96731.78
2019-02-14T19:07:08.747Z,96736.37
2019-02-14T19:10:16.386Z,96740.06
2019-02-14T19:13:24.207Z,96745.00
2019-02-14T19:16:31.765Z,96743.17
2019-02-14T19:19:39.776Z,96744.91
2019-02-14T19:22:54.902Z,96743.52
2019-02-14T19:26:03.463Z,96749.53
2019-02-14T19:29:11.249Z,96754.02
2019-02-14T19:32:19.562Z,96749.39
2019-02-14T19:35:26.965Z,96753.14
2019-02-14T19:38:34.366Z,96752.59
2019-02-14T19:41:42.322Z,96749.91
2019-02-14T19:44:50.126Z,96759.54
2019-02-14T19:47:58.325Z,96761.98
2019-02-14T19:51:05.671Z,96757.41
2019-02-14T19:54:13.214Z,96757.23
2019-02-14T19:57:20.363Z,96755.08
2019-02-14T20:03:36.696Z,96750.42
2019-02-14T20:06:43.864Z,96749.20
2019-02-14T20:09:51.771Z,96750.00
2019-02-14T20:12:59.618Z,96743.75
2019-02-14T20:16:08.026Z,96745.86
2019-02-14T20:19:15.388Z,96750.19
2019-02-14T20:22:22.600Z,96745.38
2019-02-14T20:25:29.923Z,96743.72
2019-02-14T20:28:38.375Z,96745.05
2019-02-14T20:31:46.119Z,96746.09
2019-02-14T20:34:54.253Z,96744.43
2019-02-14T20:38:01.669Z,96744.19
2019-02-14T20:41:09.069Z,96748.16
2019-02-14T20:44:16.430Z,96752.31
2019-02-14T20:47:23.765Z,96746.91
2019-02-14T20:50:31.533Z,96747.31
2019-02-14T20:53:40.198Z,96745.45
2019-02-14T20:56:48.063Z,96756.48
2019-02-14T20:59:55.691Z,96747.06
2019-02-14T21:03:03.592Z,96747.56
2019-02-14T21:06:12.167Z,96746.09
2019-02-14T21:09:20.142Z,96747.05
2019-02-14T21:12:27.600Z,96741.34
2019-02-14T21:15:35.137Z,96736.67
2019-02-14T21:18:51.843Z,96731.11
2019-02-14T21:22:01.852Z,96739.89
2019-02-14T21:25:09.169Z,96732.97
2019-02-14T21:28:16.731Z,96728.93
2019-02-14T21:31:24.500Z,96730.72
2019-02-14T21:34:32.090Z,96734.36
2019-02-14T21:37:39.436Z,96743.05
2019-02-14T21:40:47.456Z,96740.92
2019-02-14T21:43:55.906Z,96735.98
2019-02-14T21:47:03.417Z,96741.64
2019-02-14T21:50:11.162Z,96739.87
2019-02-14T21:53:19.286Z,96735.61
2019-02-14T21:56:27.340Z,96737.55
2019-02-14T21:59:35.678Z,96737.06
2019-02-14T22:02:44.277Z,96734.69
2019-02-14T22:05:51.954Z,96737.30
2019-02-14T22:09:04.068Z,96737.80
2019-02-14T22:12:12.041Z,96729.78
2019-02-14T22:15:20.146Z,96730.95
2019-02-14T22:18:27.941Z,96729.69
2019-02-14T22:21:35.490Z,96728.50
2019-02-14T22:24:43.225Z,96728.98
2019-02-14T22:27:51.075Z,96735.33
2019-02-14T22:30:59.383Z,96741.08
2019-02-14T22:34:06.916Z,96745.64
2019-02-14T22:37:14.604Z,96744.11
2019-02-14T22:40:21.984Z,96751.12
2019-02-14T22:43:31.431Z,96740.03
2019-02-14T22:46:39.099Z,96740.73
2019-02-14T22:49:47.057Z,96731.22
2019-02-14T22:52:54.890Z,96729.02
2019-02-14T22:56:02.063Z,96733.66
2019-02-14T22:59:09.363Z,96739.13
2019-02-14T23:02:17.475Z,96741.46
2019-02-14T23:05:25.162Z,96737.28
2019-02-14T23:08:32.699Z,96736.48
2019-02-14T23:11:40.753Z,96734.17
2019-02-14T23:14:48.329Z,96728.88
2019-02-14T23:17:56.083Z,96735.33
2019-02-14T23:21:04.042Z,96737.15
2019-02-14T23:24:11.450Z,96736.02
2019-02-14T23:27:19.037Z,96731.23
2019-02-14T23:30:26.669Z,96726.11
2019-02-14T23:33:34.267Z,96720.30
2019-02-14T23:36:41.916Z,96732.63
2019-02-14T23:39:49.140Z,96726.22
2019-02-14T23:43:04.392Z,96718.23
2019-02-14T23:46:06.239Z,96718.41
2019-02-14T23:49:13.502Z,96718.36
2019-02-14T23:52:21.462Z,96709.61
2019-02-14T23:55:29.003Z,96711.80
2019-02-14T23:58:36.811Z,96708.83
